Hlavní strana
METAR-TAF:

METAR-TAF

Letiště :

Letiště Burgas

Burgas, Bulharsko

zeměpisná šířka: 42-29N, zeměpisná délka: 027-29E, výška: 16 m

Aktuální stav počasí

Zpráva byla vytvořena před 21 minutami, v 02:00 UTC
Severovýchodní vítr 6 kt
Teplota 11°C
Vlhkost vzduchu 87%
Tlak 1023 hPa
Viditelnost 10 km a více
Oblačno až skoro zataženo ve výšce 4900 ft

METAR: LBBG 090200Z 04006KT 9999 BKN049 11/09 Q1023 NOSIG

Čas: 05:21 (02:21 UTC)

Předpověď počasí

Zpráva byla vytvořena před 3 hodinami a 21 minutami, v 23:00 UTC
Předpověď platná od 09 v 00 UTC do 09 v 24 UTC
Severoseverovýchodní vítr 8 kt
Viditelnost 10 km a více
Polojasno ve výšce 3000 ft
Dočasný
od 09 v 01 UTC do 09 v 05 UTC
Oblačno až skoro zataženo ve výšce 1000 ft
Změna
od 09 v 08 UTC do 09 v 10 UTC
Východojihovýchodní vítr 14 kt
Změna
od 09 v 20 UTC do 09 v 22 UTC
vítr z různých směrů 4 kt

TAF: LBBG 082300Z 0900/0924 02008KT 9999 SCT030 TEMPO 0901/0905 BKN010 BECMG 0908/0910 11014KT BECMG 0920/0922 VRB04KT

Stav a předpovědi počasí z více než 4 000 letišť (zprávy METAR a TAF).

Červené a žluté tečky na mapě představují dostupné meteorologické stanice.

Když kurzor umístíte na tečku, zobrazí se název stanice.

Pak kliknutím zobrazíte stav a předpověď počasí.

Chcete-li změnit mapu, kliknutím na zelené tlačítko se znaménkem +mapu přiblížíte, kliknutím na zelené tlačítko se znaménkem – mapu oddálíte a kliknutím na zelené šipky přejdete na sousední mapy.


METAR-TAF: